createdAt,value
2022-09-24T00:01:20.510Z,14.80
2022-09-24T00:13:20.998Z,12.30
2022-09-24T00:25:21.390Z,12.60
2022-09-24T00:37:21.883Z,12.30
2022-09-24T00:49:22.311Z,12.00
2022-09-24T01:01:22.817Z,11.90
2022-09-24T01:13:23.187Z,10.30
2022-09-24T01:25:23.658Z,10.90
2022-09-24T01:37:24.135Z,10.60
2022-09-24T01:49:24.607Z,10.70
2022-09-24T02:01:25.119Z,10.80
2022-09-24T02:13:25.449Z,9.70
2022-09-24T02:25:25.916Z,11.00
2022-09-24T02:37:26.399Z,10.30
2022-09-24T02:49:26.807Z,9.80
2022-09-24T03:01:27.340Z,10.60
2022-09-24T03:13:27.736Z,9.20
2022-09-24T03:25:28.192Z,11.30
2022-09-24T03:37:28.651Z,10.50
2022-09-24T03:49:29.114Z,8.90
2022-09-24T04:01:29.599Z,9.80
2022-09-24T04:13:30.027Z,10.30
2022-09-24T04:25:30.453Z,9.80
2022-09-24T04:37:30.900Z,11.70
2022-09-24T04:49:31.355Z,12.20
2022-09-24T05:01:31.966Z,18.50
2022-09-24T05:13:32.277Z,29.40
2022-09-24T05:25:32.725Z,27.10
2022-09-24T05:37:33.164Z,23.40
2022-09-24T05:49:33.641Z,24.80
2022-09-24T06:01:34.138Z,30.40
2022-09-24T06:13:34.511Z,26.50
2022-09-24T06:25:34.969Z,23.80
2022-09-24T06:37:35.453Z,19.10
2022-09-24T06:49:35.889Z,20.30
2022-09-24T07:01:36.460Z,18.30
2022-09-24T07:13:36.807Z,12.90
2022-09-24T07:25:37.267Z,8.00
2022-09-24T07:37:37.701Z,7.40
2022-09-24T07:49:38.170Z,6.80
2022-09-24T08:01:38.720Z,8.60
2022-09-24T08:13:39.105Z,5.50
2022-09-24T08:25:39.514Z,5.60
2022-09-24T08:37:39.926Z,4.70
2022-09-24T08:49:40.431Z,5.20
2022-09-24T09:01:40.965Z,6.10
2022-09-24T09:13:41.296Z,5.60
2022-09-24T09:25:41.753Z,4.00
2022-09-24T09:37:42.226Z,3.90
2022-09-24T09:49:42.713Z,4.50
2022-09-24T10:01:43.205Z,4.80
2022-09-24T10:13:43.609Z,7.30
2022-09-24T10:25:44.059Z,6.70
2022-09-24T10:37:44.537Z,4.70
2022-09-24T10:49:44.976Z,4.60
2022-09-24T11:01:45.775Z,3.90
2022-09-24T11:13:50.456Z,3.80
2022-09-24T11:25:46.347Z,3.40
2022-09-24T11:37:46.773Z,4.70
2022-09-24T11:49:47.242Z,3.30
2022-09-24T12:01:47.827Z,4.90
2022-09-24T12:13:48.168Z,5.90
2022-09-24T12:25:48.617Z,3.90
2022-09-24T12:37:49.064Z,5.80
2022-09-24T12:49:49.531Z,3.10
2022-09-24T13:01:50.083Z,5.50
2022-09-24T13:13:50.433Z,3.90
2022-09-24T13:25:50.890Z,5.40
2022-09-24T13:37:51.313Z,4.20
2022-09-24T13:49:51.820Z,4.90
2022-09-24T14:01:52.302Z,4.00
2022-09-24T14:13:52.691Z,2.90
2022-09-24T14:25:53.157Z,5.50
2022-09-24T14:37:53.655Z,3.90
2022-09-24T14:49:54.080Z,5.50
2022-09-24T15:01:54.562Z,4.00
2022-09-24T15:13:54.988Z,3.80
2022-09-24T15:25:55.477Z,6.30
2022-09-24T15:37:55.908Z,6.50
2022-09-24T15:49:56.341Z,6.80
2022-09-24T16:01:56.902Z,5.60
2022-09-24T16:13:57.288Z,6.80
2022-09-24T16:25:57.709Z,6.70
2022-09-24T16:37:58.148Z,7.50
2022-09-24T16:49:58.656Z,8.70
2022-09-24T17:01:59.115Z,6.60
2022-09-24T17:13:59.541Z,6.20
2022-09-24T17:25:59.977Z,9.10
2022-09-24T17:38:00.459Z,8.20
2022-09-24T17:50:00.875Z,10.10
2022-09-24T18:02:01.515Z,8.80
2022-09-24T18:14:01.829Z,11.40
2022-09-24T18:26:09.753Z,11.40
2022-09-24T18:38:02.783Z,13.10
2022-09-24T18:50:03.266Z,13.70
2022-09-24T19:02:03.901Z,11.70
2022-09-24T19:14:04.117Z,15.70
2022-09-24T19:26:04.542Z,19.50
2022-09-24T19:38:04.973Z,23.40
2022-09-24T19:50:05.668Z,23.00
2022-09-24T20:02:06.004Z,20.70
2022-09-24T20:14:06.715Z,21.90
2022-09-24T20:26:06.784Z,21.30
2022-09-24T20:38:07.256Z,22.80
2022-09-24T20:50:07.701Z,30.10
2022-09-24T21:02:08.237Z,23.20
2022-09-24T21:14:08.657Z,23.20
2022-09-24T21:26:09.068Z,30.70
2022-09-24T21:38:09.522Z,29.80
2022-09-24T21:50:09.987Z,47.10
2022-09-24T22:02:10.502Z,33.70
2022-09-24T22:14:10.919Z,26.30
2022-09-24T22:26:11.349Z,29.40
2022-09-24T22:38:11.794Z,41.50
2022-09-24T22:50:12.231Z,25.90
2022-09-24T23:02:13.507Z,23.30
2022-09-24T23:14:13.701Z,24.60
2022-09-24T23:26:16.469Z,23.90
2022-09-24T23:38:14.066Z,20.70
2022-09-24T23:50:14.485Z,28.90
